Time;durP1;ratioP1;P1;durP2;ratioP2;P2;SDS_P1;SDS_P2;PMS_P1;PMS_P2;Temp;Humidity;BMP_temperature;BMP_pressure;BME280_temperature;BME280_humidity;BME280_pressure;Samples;Min_cycle;Max_cycle;Signal;HPM_P1;HPM_P2
2022/04/21 00:00:55;;;;;;;9.15;4.75;;;;;;;;;;4972928;28;20061;-73
2022/04/21 00:03:21;;;;;;;4.78;4.28;;;;;;;;;;4973478;28;20062;-73
2022/04/21 00:05:48;;;;;;;4.30;3.90;;;;;;;;;;4973070;28;20482;-73
2022/04/21 00:08:17;;;;;;;5.65;4.47;;;;;;;;;;4995912;28;20043;-73
2022/04/21 00:10:44;;;;;;;6.72;4.28;;;;;;;;;;4972987;28;20046;-73
2022/04/21 00:13:10;;;;;;;4.50;4.10;;;;;;;;;;4972966;28;20054;-73
2022/04/21 00:15:37;;;;;;;5.20;4.50;;;;;;;;;;4976086;28;20058;-73
2022/04/21 00:18:04;;;;;;;11.52;4.93;;;;;;;;;;4977554;28;20055;-73
2022/04/21 00:20:31;;;;;;;5.57;4.50;;;;;;;;;;4977188;28;20061;-73
2022/04/21 00:25:43;;;;;;;8.40;4.60;;;;;;;;;;4996454;28;20089;-73
2022/04/21 00:28:10;;;;;;;6.03;4.80;;;;;;;;;;4996105;28;20054;-73
2022/04/21 00:30:36;;;;;;;6.53;5.80;;;;;;;;;;4993500;28;20055;-73
2022/04/21 00:33:03;;;;;;;8.73;4.88;;;;;;;;;;4987038;28;20452;-73
2022/04/21 00:35:30;;;;;;;7.40;5.03;;;;;;;;;;4994394;28;20054;-73
2022/04/21 00:37:57;;;;;;;9.10;4.68;;;;;;;;;;4986333;28;20050;-74
2022/04/21 00:40:29;;;;;;;6.50;5.25;;;;;;;;;;5011191;28;20497;-73
2022/04/21 00:42:56;;;;;;;6.82;4.93;;;;;;;;;;4996161;28;20483;-73
2022/04/21 00:45:23;;;;;;;7.28;5.50;;;;;;;;;;4984384;28;20055;-73
2022/04/21 00:47:52;;;;;;;7.43;6.20;;;;;;;;;;4976584;28;20446;-72
2022/04/21 00:50:22;;;;;;;7.43;5.85;;;;;;;;;;4991231;28;20058;-73
2022/04/21 00:52:50;;;;;;;6.25;5.60;;;;;;;;;;4975294;28;20051;-73
2022/04/21 00:55:18;;;;;;;7.63;5.63;;;;;;;;;;4976599;28;20065;-73
2022/04/21 00:57:46;;;;;;;6.40;5.40;;;;;;;;;;4991425;28;20082;-72
2022/04/21 01:00:13;;;;;;;6.38;5.78;;;;;;;;;;4989783;28;20058;-73
2022/04/21 01:02:46;;;;;;;5.88;4.72;;;;;;;;;;4994174;28;20054;-73
2022/04/21 01:05:14;;;;;;;;;;;;;;;;;;4991175;28;20068;-73
2022/04/21 01:07:41;;;;;;;7.57;5.28;;;;;;;;;;4995266;28;20340;-73
2022/04/21 01:10:09;;;;;;;19.65;11.80;;;;;;;;;;4994260;28;20058;-72
2022/04/21 01:12:36;;;;;;;23.15;11.95;;;;;;;;;;4995491;28;20050;-73
2022/04/21 01:15:03;;;;;;;17.05;10.30;;;;;;;;;;4994440;28;20410;-72
2022/04/21 01:17:34;;;;;;;13.90;9.02;;;;;;;;;;4993600;28;20054;-73
2022/04/21 01:20:06;;;;;;;17.42;10.52;;;;;;;;;;4991528;28;20053;-73
2022/04/21 01:22:33;;;;;;;11.90;7.65;;;;;;;;;;4995385;28;20054;-73
2022/04/21 01:24:59;;;;;;;22.30;12.00;;;;;;;;;;4983276;28;20053;-73
2022/04/21 01:27:28;;;;;;;14.90;8.40;;;;;;;;;;4973389;28;20490;-73
2022/04/21 01:29:55;;;;;;;8.00;7.13;;;;;;;;;;4975752;28;20054;-73
2022/04/21 01:32:22;;;;;;;8.63;7.25;;;;;;;;;;4975459;28;20126;-73
2022/04/21 01:34:48;;;;;;;11.20;7.82;;;;;;;;;;4975587;28;20050;-73
2022/04/21 01:42:45;;;;;;;7.97;6.93;;;;;;;;;;4974332;28;20062;-73
2022/04/21 01:45:12;;;;;;;9.77;6.90;;;;;;;;;;4975740;28;20054;-73
2022/04/21 01:47:38;;;;;;;7.32;6.50;;;;;;;;;;4975519;28;20051;-73
2022/04/21 01:50:07;;;;;;;7.25;6.55;;;;;;;;;;4975529;28;20055;-72
2022/04/21 01:52:37;;;;;;;8.43;7.28;;;;;;;;;;4975313;28;20054;-73
2022/04/21 01:55:04;;;;;;;10.85;6.90;;;;;;;;;;4974217;28;20058;-73
2022/04/21 01:57:31;;;;;;;7.15;6.45;;;;;;;;;;4974973;28;20121;-73
2022/04/21 01:59:58;;;;;;;9.00;6.65;;;;;;;;;;5037564;23;20470;-67
2022/04/21 02:02:24;;;;;;;7.10;6.40;;;;;;;;;;5016218;28;20053;-68
2022/04/21 02:04:51;;;;;;;8.35;6.50;;;;;;;;;;5015761;28;20053;-68
2022/04/21 02:07:18;;;;;;;7.88;6.97;;;;;;;;;;5033964;28;20049;-68
2022/04/21 02:09:44;;;;;;;7.57;6.80;;;;;;;;;;5033695;28;20053;-68
2022/04/21 02:12:11;;;;;;;9.82;7.22;;;;;;;;;;5033526;28;20045;-68
2022/04/21 02:14:37;;;;;;;8.77;7.38;;;;;;;;;;5033833;28;20486;-68
2022/04/21 02:17:06;;;;;;;8.63;7.25;;;;;;;;;;5032629;28;20049;-68
2022/04/21 02:19:33;;;;;;;9.15;7.28;;;;;;;;;;5016339;28;20053;-68
2022/04/21 02:22:00;;;;;;;8.35;7.55;;;;;;;;;;5033325;28;20052;-68
2022/04/21 02:24:27;;;;;;;8.65;7.43;;;;;;;;;;5032307;28;20424;-68
2022/04/21 02:26:54;;;;;;;11.77;7.93;;;;;;;;;;5015817;28;20500;-68
2022/04/21 02:29:20;;;;;;;8.98;7.78;;;;;;;;;;5032392;28;20112;-68
2022/04/21 02:31:47;;;;;;;10.20;7.93;;;;;;;;;;5032126;28;20057;-68
2022/04/21 02:34:14;;;;;;;8.40;7.60;;;;;;;;;;5032340;28;20467;-69
2022/04/21 02:36:40;;;;;;;14.68;8.45;;;;;;;;;;5015681;28;20515;-68
2022/04/21 02:39:07;;;;;;;9.52;8.35;;;;;;;;;;5015377;28;20045;-68
2022/04/21 02:41:34;;;;;;;10.40;7.88;;;;;;;;;;5032946;28;20448;-67
2022/04/21 02:44:01;;;;;;;10.23;8.73;;;;;;;;;;5032063;28;20127;-67
2022/04/21 02:46:31;;;;;;;13.23;8.02;;;;;;;;;;5031798;28;20053;-68
2022/04/21 02:48:59;;;;;;;10.60;8.45;;;;;;;;;;5015746;28;20046;-68
2022/04/21 02:51:27;;;;;;;9.45;8.25;;;;;;;;;;5032999;28;20057;-68
2022/04/21 02:59:25;;;;;;;12.45;8.98;;;;;;;;;;5031742;28;20053;-68
2022/04/21 03:01:51;;;;;;;12.77;9.10;;;;;;;;;;5014989;28;20080;-67
2022/04/21 03:04:18;;;;;;;9.90;8.90;;;;;;;;;;5015419;28;20049;-68
2022/04/21 03:06:45;;;;;;;10.35;9.25;;;;;;;;;;5015223;28;20496;-68
2022/04/21 03:09:11;;;;;;;8.95;7.90;;;;;;;;;;5031468;28;20080;-68
2022/04/21 03:11:38;;;;;;;11.68;8.73;;;;;;;;;;5015090;28;20053;-69
2022/04/21 03:14:05;;;;;;;12.23;9.82;;;;;;;;;;5031215;28;20496;-68
2022/04/21 03:16:31;;;;;;;12.35;9.35;;;;;;;;;;5033412;28;20053;-68
2022/04/21 03:18:58;;;;;;;11.48;10.35;;;;;;;;;;5014979;28;20076;-68
2022/04/21 03:24:21;;;;;;;14.15;11.20;;;;;;;;;;5032794;28;20112;-68
2022/04/21 03:26:49;;;;;;;14.00;12.13;;;;;;;;;;5032471;28;20103;-68
2022/04/21 03:29:16;;;;;;;16.02;11.20;;;;;;;;;;5014638;28;20045;-68
2022/04/21 03:31:43;;;;;;;12.55;11.18;;;;;;;;;;5014888;28;20053;-68
2022/04/21 03:34:13;;;;;;;11.68;10.52;;;;;;;;;;5014915;28;20053;-68
2022/04/21 03:36:49;;;;;;;11.25;10.07;;;;;;;;;;5031147;28;20053;-68
2022/04/21 03:39:19;;;;;;;11.25;10.00;;;;;;;;;;5031110;28;20045;-68
2022/04/21 03:41:46;;;;;;;11.48;9.90;;;;;;;;;;5030674;28;20079;-68
2022/04/21 03:44:13;;;;;;;13.60;9.93;;;;;;;;;;5014771;28;20111;-68
2022/04/21 03:46:40;;;;;;;12.43;9.88;;;;;;;;;;5030882;28;20504;-68
2022/04/21 03:49:07;;;;;;;10.57;9.50;;;;;;;;;;5031276;28;20516;-68
2022/04/21 03:51:34;;;;;;;12.18;9.88;;;;;;;;;;5014498;28;20049;-68
2022/04/21 03:54:01;;;;;;;10.80;9.30;;;;;;;;;;5014295;28;20104;-68
2022/04/21 03:56:28;;;;;;;15.70;10.00;;;;;;;;;;5014446;28;20056;-68
2022/04/21 03:58:55;;;;;;;10.55;9.25;;;;;;;;;;5014203;28;20492;-68
2022/04/21 04:01:22;;;;;;;10.65;9.55;;;;;;;;;;4998146;28;20119;-68
2022/04/21 04:03:49;;;;;;;10.52;9.02;;;;;;;;;;5030605;28;20057;-68
2022/04/21 04:11:47;;;;;;;13.48;9.75;;;;;;;;;;5011174;28;20100;-68
2022/04/21 04:14:14;;;;;;;12.85;9.40;;;;;;;;;;5010813;28;20050;-69
2022/04/21 04:16:40;;;;;;;13.85;10.10;;;;;;;;;;5011979;28;20061;-68
2022/04/21 04:19:08;;;;;;;13.95;9.32;;;;;;;;;;5010653;28;20049;-68
2022/04/21 04:21:35;;;;;;;10.93;9.00;;;;;;;;;;5011770;28;20084;-67
2022/04/21 04:24:01;;;;;;;10.18;8.88;;;;;;;;;;5002241;28;20108;-68
2022/04/21 04:26:28;;;;;;;11.52;8.88;;;;;;;;;;5031910;28;20053;-68
2022/04/21 04:28:55;;;;;;;12.68;9.63;;;;;;;;;;5030329;28;20049;-68
2022/04/21 04:31:22;;;;;;;12.18;9.13;;;;;;;;;;5006356;28;20049;-69
2022/04/21 04:33:48;;;;;;;13.00;9.65;;;;;;;;;;5030159;28;20527;-69
2022/04/21 04:36:16;;;;;;;12.02;10.48;;;;;;;;;;5031799;28;20050;-69
2022/04/21 04:38:44;;;;;;;12.07;10.75;;;;;;;;;;5030314;28;20407;-68
2022/04/21 04:43:56;;;;;;;11.73;10.40;;;;;;;;;;5030275;28;20095;-67
2022/04/21 04:46:38;;;;;;;17.40;13.98;;;;;;;;;;5013376;28;20053;-67
2022/04/21 04:49:06;;;;;;;19.50;11.85;;;;;;;;;;5014975;28;20435;-67
2022/04/21 04:51:33;;;;;;;12.48;10.10;;;;;;;;;;5010056;28;20088;-67
2022/04/21 04:54:01;;;;;;;11.45;10.05;;;;;;;;;;4994263;28;20054;-67
2022/04/21 04:56:27;;;;;;;12.63;8.88;;;;;;;;;;4994292;28;20057;-68
2022/04/21 04:58:55;;;;;;;10.52;9.20;;;;;;;;;;5011427;28;20108;-68
2022/04/21 05:01:35;;;;;;;10.45;8.68;;;;;;;;;;5025258;28;20057;-68
2022/04/21 05:04:06;;;;;;;11.20;8.70;;;;;;;;;;5033982;28;20107;-68
2022/04/21 05:06:46;;;;;;;14.20;9.15;;;;;;;;;;5017967;28;20045;-68
2022/04/21 05:09:14;;;;;;;10.05;8.30;;;;;;;;;;5033759;28;20064;-68
2022/04/21 05:11:42;;;;;;;10.38;8.50;;;;;;;;;;5013967;28;20120;-67
2022/04/21 05:14:10;;;;;;;12.93;8.52;;;;;;;;;;5013893;28;20057;-70
2022/04/21 05:16:37;;;;;;;10.65;8.55;;;;;;;;;;4997780;28;20105;-69
2022/04/21 05:19:04;;;;;;;9.75;8.15;;;;;;;;;;5013988;28;20104;-69
2022/04/21 05:21:32;;;;;;;10.43;8.05;;;;;;;;;;4997464;28;20058;-69
2022/04/21 05:24:02;;;;;;;11.15;9.82;;;;;;;;;;4997395;28;20045;-69
2022/04/21 05:26:30;;;;;;;11.27;9.15;;;;;;;;;;4998104;28;20549;-70
2022/04/21 05:28:58;;;;;;;12.38;9.80;;;;;;;;;;5013551;28;20409;-71
2022/04/21 05:31:28;;;;;;;9.52;8.52;;;;;;;;;;4997266;28;20555;-70
2022/04/21 05:33:55;;;;;;;20.48;9.18;;;;;;;;;;4983791;28;20056;-70
2022/04/21 05:36:22;;;;;;;17.83;9.38;;;;;;;;;;5033233;28;20474;-70
2022/04/21 05:38:51;;;;;;;21.33;11.63;;;;;;;;;;5016913;28;20049;-68
2022/04/21 05:41:19;;;;;;;12.98;9.55;;;;;;;;;;5019175;28;20058;-68
2022/04/21 05:43:49;;;;;;;13.77;9.77;;;;;;;;;;5021588;28;20476;-67
2022/04/21 05:46:16;;;;;;;12.75;9.95;;;;;;;;;;5021043;28;20407;-68
2022/04/21 05:48:43;;;;;;;13.25;10.52;;;;;;;;;;5019113;28;20068;-67
2022/04/21 05:51:11;;;;;;;14.68;10.27;;;;;;;;;;5003914;28;20492;-66
2022/04/21 05:53:38;;;;;;;13.30;11.18;;;;;;;;;;4995980;28;20053;-71
2022/04/21 05:56:06;;;;;;;14.75;11.30;;;;;;;;;;5016894;28;20049;-71
2022/04/21 05:58:33;;;;;;;15.02;11.02;;;;;;;;;;5000413;28;20049;-71
2022/04/21 06:01:00;;;;;;;14.88;11.05;;;;;;;;;;5019697;28;20485;-71
2022/04/21 06:03:30;;;;;;;11.98;10.68;;;;;;;;;;5019682;28;20064;-71
2022/04/21 06:05:56;;;;;;;11.70;10.32;;;;;;;;;;5002917;28;20068;-73
2022/04/21 06:08:23;;;;;;;13.25;11.23;;;;;;;;;;5036228;28;20056;-70
2022/04/21 06:10:50;;;;;;;11.70;10.57;;;;;;;;;;5015314;28;20050;-69
2022/04/21 06:13:17;;;;;;;12.52;10.50;;;;;;;;;;5021447;28;20046;-70
2022/04/21 06:15:43;;;;;;;14.93;10.73;;;;;;;;;;5013952;28;20061;-71
2022/04/21 06:18:10;;;;;;;12.65;10.70;;;;;;;;;;5021827;28;20041;-70
2022/04/21 06:20:37;;;;;;;12.52;10.60;;;;;;;;;;5017645;28;20045;-70
2022/04/21 06:23:03;;;;;;;16.35;11.15;;;;;;;;;;5016919;28;20084;-70
2022/04/21 06:25:30;;;;;;;12.75;11.15;;;;;;;;;;5015642;28;20104;-69
2022/04/21 06:27:57;;;;;;;15.80;11.80;;;;;;;;;;5016353;28;20075;-70
2022/04/21 06:30:24;;;;;;;13.18;10.55;;;;;;;;;;5017290;28;20085;-71
2022/04/21 06:32:51;;;;;;;12.25;10.93;;;;;;;;;;5020008;28;20057;-71
2022/04/21 06:35:18;;;;;;;13.60;12.05;;;;;;;;;;5016982;28;20046;-71
2022/04/21 06:37:46;;;;;;;14.45;11.23;;;;;;;;;;5019994;28;20054;-72
2022/04/21 06:40:13;;;;;;;13.48;11.27;;;;;;;;;;5018255;28;20096;-69
2022/04/21 06:42:42;;;;;;;16.52;11.93;;;;;;;;;;5015089;28;20097;-69
2022/04/21 06:48:07;;;;;;;13.10;11.65;;;;;;;;;;5015814;28;20053;-69
2022/04/21 06:50:40;;;;;;;13.90;11.98;;;;;;;;;;5024958;28;20500;-69
2022/04/21 06:53:08;;;;;;;13.87;12.07;;;;;;;;;;5020609;28;20103;-69
2022/04/21 06:55:34;;;;;;;15.60;11.80;;;;;;;;;;5017474;28;20099;-69
2022/04/21 06:58:01;;;;;;;15.77;11.95;;;;;;;;;;5017054;28;20464;-69
2022/04/21 07:00:28;;;;;;;16.02;12.38;;;;;;;;;;5015807;28;20053;-69
2022/04/21 07:02:57;;;;;;;18.38;12.40;;;;;;;;;;5016128;28;20092;-68
2022/04/21 07:05:25;;;;;;;14.15;11.27;;;;;;;;;;5003037;28;20052;-68
2022/04/21 07:07:52;;;;;;;14.77;11.50;;;;;;;;;;5017706;28;20463;-69
2022/04/21 07:10:20;;;;;;;13.23;11.68;;;;;;;;;;5017707;28;20038;-69
2022/04/21 07:12:46;;;;;;;16.83;12.45;;;;;;;;;;5014865;28;20088;-69
2022/04/21 07:15:14;;;;;;;13.68;11.35;;;;;;;;;;5000979;28;20103;-69
2022/04/21 07:17:41;;;;;;;12.40;10.85;;;;;;;;;;5017334;28;20112;-69
2022/04/21 07:20:10;;;;;;;15.77;12.15;;;;;;;;;;4999870;28;20053;-69
2022/04/21 07:22:37;;;;;;;13.20;11.57;;;;;;;;;;5014656;28;20505;-69
2022/04/21 07:25:06;;;;;;;14.98;12.00;;;;;;;;;;5015561;28;20049;-70
2022/04/21 07:27:33;;;;;;;12.63;11.20;;;;;;;;;;5000038;28;20053;-70
2022/04/21 07:30:01;;;;;;;14.30;11.35;;;;;;;;;;5011264;28;20115;-69
2022/04/21 07:32:27;;;;;;;14.27;12.35;;;;;;;;;;5018903;28;20049;-69
2022/04/21 07:34:54;;;;;;;13.15;11.80;;;;;;;;;;5014039;28;20053;-70
2022/04/21 07:37:21;;;;;;;15.35;12.80;;;;;;;;;;5020172;28;20049;-68
2022/04/21 07:39:49;;;;;;;13.02;11.63;;;;;;;;;;4997732;28;20264;-69
2022/04/21 07:42:16;;;;;;;14.15;11.00;;;;;;;;;;5015802;28;20064;-68
2022/04/21 07:44:43;;;;;;;13.65;12.13;;;;;;;;;;5015733;28;20136;-68
2022/04/21 07:47:10;;;;;;;14.10;11.45;;;;;;;;;;5017404;28;20052;-68
2022/04/21 07:49:46;;;;;;;14.95;12.82;;;;;;;;;;5018847;28;20408;-66
2022/04/21 07:54:57;;;;;;;14.25;12.05;;;;;;;;;;5017331;28;20047;-70
2022/04/21 07:57:24;;;;;;;14.30;12.75;;;;;;;;;;5014923;28;20500;-70
2022/04/21 07:59:51;;;;;;;14.93;11.70;;;;;;;;;;5017568;28;20041;-70
2022/04/21 08:02:17;;;;;;;14.90;12.20;;;;;;;;;;5015906;28;20050;-70
2022/04/21 08:04:44;;;;;;;12.65;11.35;;;;;;;;;;5016051;28;20045;-71
2022/04/21 08:07:11;;;;;;;13.85;10.77;;;;;;;;;;5016301;28;20394;-71
2022/04/21 08:09:38;;;;;;;13.18;11.88;;;;;;;;;;5019246;28;20060;-71
2022/04/21 08:12:06;;;;;;;15.15;11.23;;;;;;;;;;5016826;28;20104;-70
2022/04/21 08:14:33;;;;;;;12.40;11.10;;;;;;;;;;5015069;28;20057;-70
2022/04/21 08:17:00;;;;;;;12.15;10.75;;;;;;;;;;5013599;28;20077;-69
2022/04/21 08:19:26;;;;;;;10.35;9.02;;;;;;;;;;5015442;28;20050;-68
2022/04/21 08:21:53;;;;;;;11.50;9.15;;;;;;;;;;5017263;28;20493;-69
2022/04/21 08:33:11;;;;;;;10.48;8.98;;;;;;;;;;5013776;28;20058;-69
2022/04/21 08:35:38;;;;;;;10.75;9.60;;;;;;;;;;5018256;28;20435;-70
2022/04/21 08:40:37;;;;;;;10.73;9.65;;;;;;;;;;4944816;28;20047;-72
2022/04/21 08:43:15;;;;;;;11.30;10.10;;;;;;;;;;4945375;29;20051;-70
2022/04/21 08:45:43;;;;;;;10.82;9.77;;;;;;;;;;4941850;29;20051;-73
2022/04/21 08:48:14;;;;;;;11.15;9.68;;;;;;;;;;4944323;29;20493;-73
2022/04/21 08:50:41;;;;;;;9.45;8.55;;;;;;;;;;4944330;28;20055;-74
2022/04/21 08:53:11;;;;;;;12.32;9.65;;;;;;;;;;4927746;29;20342;-70
2022/04/21 08:55:44;;;;;;;9.20;8.30;;;;;;;;;;4944370;28;20107;-71
2022/04/21 08:58:11;;;;;;;10.57;8.88;;;;;;;;;;4942184;29;20048;-73
2022/04/21 09:00:39;;;;;;;11.18;8.75;;;;;;;;;;4930266;29;20062;-66
2022/04/21 09:03:07;;;;;;;10.35;8.65;;;;;;;;;;4945185;28;20509;-68
2022/04/21 09:05:35;;;;;;;8.75;7.85;;;;;;;;;;4944499;29;20078;-73
2022/04/21 09:08:02;;;;;;;10.00;9.02;;;;;;;;;;4942048;29;20075;-73
2022/04/21 09:11:08;;;;;;;8.95;8.05;;;;;;;;;;4945601;29;20083;-68
2022/04/21 09:13:36;;;;;;;10.38;8.10;;;;;;;;;;4945427;29;20052;-66
2022/04/21 09:16:04;;;;;;;9.35;7.50;;;;;;;;;;4946750;29;20510;-66
2022/04/21 09:18:44;;;;;;;9.27;7.78;;;;;;;;;;4942379;29;20055;-66
2022/04/21 09:21:15;;;;;;;8.77;7.28;;;;;;;;;;4948005;29;20047;-67
2022/04/21 09:23:47;;;;;;;8.73;7.55;;;;;;;;;;4944772;29;20051;-67
2022/04/21 09:26:21;;;;;;;8.48;7.68;;;;;;;;;;4956065;28;20054;-67
2022/04/21 09:28:54;;;;;;;8.32;7.20;;;;;;;;;;4945877;29;20470;-67
2022/04/21 09:31:21;;;;;;;7.45;6.75;;;;;;;;;;4944831;28;20055;-67
2022/04/21 09:33:48;;;;;;;8.18;6.97;;;;;;;;;;4925529;29;20052;-68
2022/04/21 09:36:16;;;;;;;9.45;7.00;;;;;;;;;;4965287;28;20083;-67
2022/04/21 09:38:42;;;;;;;7.28;6.57;;;;;;;;;;4943739;28;20062;-69
2022/04/21 09:41:12;;;;;;;7.47;6.40;;;;;;;;;;4931654;29;20044;-68
2022/04/21 09:43:41;;;;;;;7.38;6.10;;;;;;;;;;4940883;29;20059;-72
2022/04/21 09:46:17;;;;;;;8.25;5.63;;;;;;;;;;4942341;29;20094;-72
2022/04/21 09:48:45;;;;;;;6.30;5.55;;;;;;;;;;4980971;23;20113;-76
2022/04/21 09:51:14;;;;;;;6.38;5.68;;;;;;;;;;5001158;28;20046;-76
2022/04/21 09:53:59;;;;;;;6.90;4.78;;;;;;;;;;4984591;28;20078;-76
2022/04/21 09:56:37;;;;;;;7.72;4.72;;;;;;;;;;4977683;28;20053;-76
2022/04/21 09:59:08;;;;;;;6.35;5.15;;;;;;;;;;4976711;28;20054;-76
2022/04/21 10:01:41;;;;;;;5.53;5.03;;;;;;;;;;4977757;28;20137;-76
2022/04/21 10:04:08;;;;;;;;;;;;;;;;;;4980274;28;20061;-75
2022/04/21 10:06:37;;;;;;;5.15;4.63;;;;;;;;;;4999571;28;19921;-77
2022/04/21 10:09:04;;;;;;;5.45;4.35;;;;;;;;;;4984165;28;20050;-75
2022/04/21 10:11:31;;;;;;;5.25;4.78;;;;;;;;;;5001672;28;20058;-75
2022/04/21 10:13:58;;;;;;;7.13;4.85;;;;;;;;;;5001270;28;20050;-74
2022/04/21 10:16:28;;;;;;;10.00;5.40;;;;;;;;;;4998122;28;20057;-74
2022/04/21 10:18:57;;;;;;;6.13;5.53;;;;;;;;;;4968745;28;20513;-77
2022/04/21 10:21:36;;;;;;;5.40;4.90;;;;;;;;;;4980512;28;20274;-76
2022/04/21 10:24:03;;;;;;;5.47;4.97;;;;;;;;;;5002312;28;20503;-76
2022/04/21 10:26:43;;;;;;;4.65;4.25;;;;;;;;;;4990715;28;20049;-76
2022/04/21 10:29:17;;;;;;;5.50;4.45;;;;;;;;;;4984486;28;20046;-76
2022/04/21 10:31:59;;;;;;;4.75;4.32;;;;;;;;;;4976679;28;20050;-76
2022/04/21 10:34:38;;;;;;;4.60;4.15;;;;;;;;;;4983374;28;20069;-75
2022/04/21 10:37:16;;;;;;;5.45;3.88;;;;;;;;;;4969375;28;20183;-76
2022/04/21 10:40:05;;;;;;;3.45;3.15;;;;;;;;;;4987833;28;20142;-76
2022/04/21 10:42:51;;;;;;;5.53;4.13;;;;;;;;;;4997465;28;20120;-76
2022/04/21 10:45:37;;;;;;;4.60;4.20;;;;;;;;;;4999647;28;20053;-77
2022/04/21 10:48:05;;;;;;;4.30;3.90;;;;;;;;;;4970176;28;20406;-77
2022/04/21 10:50:32;;;;;;;4.38;3.55;;;;;;;;;;4953171;28;20058;-75
2022/04/21 10:58:33;;;;;;;4.28;3.53;;;;;;;;;;4979741;28;20054;-78
2022/04/21 11:01:09;;;;;;;3.50;3.13;;;;;;;;;;5002093;28;20478;-78
2022/04/21 11:03:37;;;;;;;3.22;2.70;;;;;;;;;;5002560;28;20372;-78
2022/04/21 11:06:08;;;;;;;2.70;2.50;;;;;;;;;;4963778;28;20457;-79
2022/04/21 11:08:35;;;;;;;5.22;2.30;;;;;;;;;;4974702;28;20047;-80
2022/04/21 11:11:03;;;;;;;2.78;2.47;;;;;;;;;;4972781;28;20050;-79
2022/04/21 11:13:49;;;;;;;2.80;2.38;;;;;;;;;;4983575;28;20521;-78
2022/04/21 11:16:40;;;;;;;4.22;2.60;;;;;;;;;;5002284;28;20055;-78
2022/04/21 11:20:00;;;;;;;3.90;2.40;;;;;;;;;;4997492;28;20058;-78
2022/04/21 11:22:40;;;;;;;2.40;2.20;;;;;;;;;;4986610;28;20046;-78
2022/04/21 11:25:07;;;;;;;2.85;2.47;;;;;;;;;;4972498;28;20116;-79
2022/04/21 11:27:42;;;;;;;2.33;2.13;;;;;;;;;;4977143;28;20540;-78
2022/04/21 11:30:12;;;;;;;2.78;2.38;;;;;;;;;;4976501;28;20089;-78
2022/04/21 11:32:53;;;;;;;2.25;2.05;;;;;;;;;;4977029;28;20089;-79
2022/04/21 11:35:22;;;;;;;2.58;1.90;;;;;;;;;;5002121;28;20074;-78
2022/04/21 11:37:59;;;;;;;2.13;1.90;;;;;;;;;;4986854;28;20062;-78
2022/04/21 11:40:31;;;;;;;2.22;1.60;;;;;;;;;;4978110;28;20530;-79
2022/04/21 11:43:00;;;;;;;1.80;1.67;;;;;;;;;;4989888;28;20136;-79
2022/04/21 11:45:34;;;;;;;3.10;1.90;;;;;;;;;;4953335;28;20070;-79
2022/04/21 11:48:00;;;;;;;1.90;1.70;;;;;;;;;;4989059;28;20051;-78
2022/04/21 11:50:30;;;;;;;3.38;2.17;;;;;;;;;;4990284;28;20413;-79
2022/04/21 11:52:58;;;;;;;2.28;2.00;;;;;;;;;;4982401;28;20485;-79
2022/04/21 11:55:27;;;;;;;2.60;2.17;;;;;;;;;;4981968;28;20050;-79
2022/04/21 11:57:54;;;;;;;2.35;1.92;;;;;;;;;;4982563;28;20058;-78
2022/04/21 12:08:48;;;;;;;2.38;2.17;;;;;;;;;;4989945;28;20061;-87
2022/04/21 12:11:17;;;;;;;2.30;2.00;;;;;;;;;;4968190;28;20057;-79
2022/04/21 12:13:44;;;;;;;2.50;1.98;;;;;;;;;;4987060;28;20053;-80
2022/04/21 12:16:38;;;;;;;3.08;2.17;;;;;;;;;;4969736;28;20054;-80
2022/04/21 12:19:10;;;;;;;1.85;1.73;;;;;;;;;;4987163;28;20054;-79
2022/04/21 12:21:37;;;;;;;3.25;2.08;;;;;;;;;;4984672;28;20077;-80
2022/04/21 12:24:20;;;;;;;2.13;1.92;;;;;;;;;;4981932;28;20104;-78
2022/04/21 12:26:51;;;;;;;1.83;1.73;;;;;;;;;;4994509;28;20121;-80
2022/04/21 12:29:19;;;;;;;2.17;1.98;;;;;;;;;;4978827;28;20054;-80
2022/04/21 12:31:52;;;;;;;1.80;1.65;;;;;;;;;;4990838;28;20042;-79
2022/04/21 12:34:27;;;;;;;2.78;1.98;;;;;;;;;;4955741;28;20057;-79
2022/04/21 12:37:01;;;;;;;1.63;1.50;;;;;;;;;;4986142;28;20058;-79
2022/04/21 12:39:29;;;;;;;1.95;1.75;;;;;;;;;;4977957;28;20051;-80
2022/04/21 12:42:16;;;;;;;1.83;1.73;;;;;;;;;;4985744;28;20137;-79
2022/04/21 12:44:44;;;;;;;3.67;1.83;;;;;;;;;;4980934;28;21085;-79
2022/04/21 12:47:17;;;;;;;2.22;1.90;;;;;;;;;;4975756;28;20140;-79
2022/04/21 12:49:56;;;;;;;1.92;1.52;;;;;;;;;;5001168;28;20055;-78
2022/04/21 12:52:36;;;;;;;2.22;1.20;;;;;;;;;;5015554;28;20057;-84
2022/04/21 12:55:05;;;;;;;2.42;2.22;;;;;;;;;;5004918;28;20054;-77
2022/04/21 12:57:31;;;;;;;3.38;2.10;;;;;;;;;;4990790;28;20110;-78
2022/04/21 12:59:59;;;;;;;2.40;2.20;;;;;;;;;;4987405;28;20049;-78
2022/04/21 13:02:26;;;;;;;2.65;2.30;;;;;;;;;;4986878;28;20477;-77
2022/04/21 13:04:53;;;;;;;4.60;1.80;;;;;;;;;;4988761;28;20585;-78
2022/04/21 13:07:27;;;;;;;2.15;1.98;;;;;;;;;;4987818;28;20086;-77
2022/04/21 13:09:54;;;;;;;3.50;2.17;;;;;;;;;;4978313;28;20043;-78
2022/04/21 13:12:21;;;;;;;2.63;2.28;;;;;;;;;;5002410;28;20058;-78
2022/04/21 13:14:47;;;;;;;2.50;2.30;;;;;;;;;;4997226;28;20056;-78
2022/04/21 13:17:14;;;;;;;2.58;2.38;;;;;;;;;;4998501;28;20047;-78
2022/04/21 13:19:41;;;;;;;3.53;2.13;;;;;;;;;;4998715;28;20055;-77
2022/04/21 13:22:08;;;;;;;3.72;2.50;;;;;;;;;;4990995;28;20125;-78
2022/04/21 13:24:35;;;;;;;2.45;2.25;;;;;;;;;;4977330;28;20056;-78
2022/04/21 13:27:02;;;;;;;2.78;1.95;;;;;;;;;;5010101;28;20057;-77
2022/04/21 13:29:29;;;;;;;2.45;2.25;;;;;;;;;;4988777;28;20053;-77
2022/04/21 13:34:42;;;;;;;3.88;2.33;;;;;;;;;;5015725;28;20054;-77
2022/04/21 13:37:09;;;;;;;2.97;2.33;;;;;;;;;;5001973;28;20046;-78
2022/04/21 13:39:38;;;;;;;3.05;2.75;;;;;;;;;;5015810;28;20050;-78
2022/04/21 13:42:07;;;;;;;2.67;2.47;;;;;;;;;;5015173;28;20046;-78
2022/04/21 13:44:34;;;;;;;2.38;2.17;;;;;;;;;;4996341;28;20054;-78
2022/04/21 13:47:21;;;;;;;3.22;2.08;;;;;;;;;;5002797;28;20338;-78
2022/04/21 13:49:48;;;;;;;2.83;2.53;;;;;;;;;;5009308;28;20114;-78
2022/04/21 13:52:14;;;;;;;3.38;2.60;;;;;;;;;;4996852;28;20042;-78
2022/04/21 13:54:41;;;;;;;2.42;2.22;;;;;;;;;;5000579;28;20046;-78
2022/04/21 13:57:08;;;;;;;3.10;2.33;;;;;;;;;;5013662;28;20061;-78
2022/04/21 13:59:34;;;;;;;2.78;1.77;;;;;;;;;;5024659;28;20037;-77
2022/04/21 14:02:01;;;;;;;2.63;1.88;;;;;;;;;;5021609;28;20049;-77
2022/04/21 14:04:28;;;;;;;2.50;2.00;;;;;;;;;;5019521;28;20046;-78
2022/04/21 14:06:55;;;;;;;4.68;1.88;;;;;;;;;;4998860;28;20058;-78
2022/04/21 14:09:22;;;;;;;2.05;1.63;;;;;;;;;;5015704;28;20057;-78
2022/04/21 14:11:51;;;;;;;3.47;2.03;;;;;;;;;;5016093;28;20052;-78
2022/04/21 14:14:17;;;;;;;3.22;1.90;;;;;;;;;;5010332;28;20054;-78
2022/04/21 14:16:44;;;;;;;2.33;1.88;;;;;;;;;;5013784;28;20065;-77
2022/04/21 14:19:11;;;;;;;1.90;1.80;;;;;;;;;;4989395;28;20069;-77
2022/04/21 14:21:38;;;;;;;2.47;1.80;;;;;;;;;;5016927;28;20054;-78
2022/04/21 14:24:05;;;;;;;1.23;1.13;;;;;;;;;;5013976;28;20056;-78
2022/04/21 14:26:32;;;;;;;1.75;1.65;;;;;;;;;;4999698;28;20093;-77
2022/04/21 14:28:59;;;;;;;2.30;2.10;;;;;;;;;;4998680;28;20064;-78
2022/04/21 14:31:26;;;;;;;3.60;1.77;;;;;;;;;;5000808;28;20130;-78
2022/04/21 14:33:53;;;;;;;3.40;1.48;;;;;;;;;;4995246;28;20092;-78
2022/04/21 14:36:20;;;;;;;1.88;1.50;;;;;;;;;;5015205;28;20050;-78
2022/04/21 14:44:17;;;;;;;1.42;1.30;;;;;;;;;;4983135;28;20568;-68
2022/04/21 14:46:49;;;;;;;1.50;1.40;;;;;;;;;;4983906;28;20042;-68
2022/04/21 14:49:36;;;;;;;3.53;1.67;;;;;;;;;;4983993;28;20073;-67
2022/04/21 14:52:06;;;;;;;3.05;2.00;;;;;;;;;;4979249;28;20039;-68
2022/04/21 14:54:32;;;;;;;1.73;1.40;;;;;;;;;;4981989;28;20054;-67
2022/04/21 14:56:59;;;;;;;3.42;1.42;;;;;;;;;;4979358;28;20141;-67
2022/04/21 14:59:26;;;;;;;2.90;1.30;;;;;;;;;;4983728;28;20398;-67
2022/04/21 15:01:53;;;;;;;1.50;1.40;;;;;;;;;;4979061;28;20053;-68
2022/04/21 15:04:19;;;;;;;2.17;1.50;;;;;;;;;;4980894;28;20129;-68
2022/04/21 15:06:48;;;;;;;1.88;1.48;;;;;;;;;;4982475;28;20047;-68
2022/04/21 15:09:16;;;;;;;2.15;1.95;;;;;;;;;;4986136;28;20489;-68
2022/04/21 15:11:44;;;;;;;2.45;1.85;;;;;;;;;;4979476;28;20138;-68
2022/04/21 15:14:10;;;;;;;2.53;1.67;;;;;;;;;;4980101;28;20077;-69
2022/04/21 15:16:37;;;;;;;1.20;1.10;;;;;;;;;;4995122;28;20358;-70
2022/04/21 15:19:04;;;;;;;4.82;1.55;;;;;;;;;;4982386;28;20141;-69
2022/04/21 15:21:31;;;;;;;1.58;1.40;;;;;;;;;;4980452;28;20317;-69
2022/04/21 15:23:57;;;;;;;2.40;1.05;;;;;;;;;;4978894;28;20054;-69
2022/04/21 15:26:24;;;;;;;3.70;1.10;;;;;;;;;;4991442;28;20054;-69
2022/04/21 15:28:50;;;;;;;2.55;1.50;;;;;;;;;;4992453;28;20057;-70
2022/04/21 15:31:23;;;;;;;1.50;1.40;;;;;;;;;;4991604;28;20489;-69
2022/04/21 15:33:52;;;;;;;1.73;1.45;;;;;;;;;;4991060;28;20046;-69
2022/04/21 15:36:19;;;;;;;4.90;1.80;;;;;;;;;;4991026;28;20158;-69
2022/04/21 15:38:51;;;;;;;1.65;1.45;;;;;;;;;;4992790;28;20105;-69
2022/04/21 15:41:17;;;;;;;1.40;1.30;;;;;;;;;;4993127;28;20046;-70
2022/04/21 15:43:44;;;;;;;1.48;1.38;;;;;;;;;;4993135;28;20054;-68
2022/04/21 15:46:11;;;;;;;1.92;1.48;;;;;;;;;;4992061;28;20050;-69
2022/04/21 15:48:38;;;;;;;3.75;1.55;;;;;;;;;;4992495;28;20058;-69
2022/04/21 15:51:04;;;;;;;2.90;1.20;;;;;;;;;;4992514;28;20050;-68